Time;durP1;ratioP1;P1;durP2;ratioP2;P2;SDS_P1;SDS_P2;PMS_P1;PMS_P2;Temp;Humidity;BMP_temperature;BMP_pressure;BME280_temperature;BME280_humidity;BME280_pressure;Samples;Min_cycle;Max_cycle;Signal;HPM_P1;HPM_P2
2022/11/05 00:10:13;;;;;;;1999.90;999.90;;;;;;;9.05;100.00;100076.00;5022718;28;20488;-71
2022/11/05 00:18:06;;;;;;;1999.90;999.90;;;;;;;9.18;100.00;100093.44;5025590;28;20046;-71
2022/11/05 00:20:31;;;;;;;1999.90;999.90;;;;;;;9.17;100.00;100086.44;5027830;28;20475;-71
2022/11/05 00:25:59;;;;;;;1999.90;999.90;;;;;;;9.23;100.00;100089.91;5025359;28;20438;-71
2022/11/05 00:28:26;;;;;;;1999.90;999.90;;;;;;;9.20;100.00;100096.94;5022114;28;20165;-71
2022/11/05 00:30:52;;;;;;;1999.90;999.90;;;;;;;9.27;100.00;100092.50;5022561;28;20080;-71
2022/11/05 00:33:18;;;;;;;1999.90;999.90;;;;;;;9.20;100.00;100101.34;5025290;28;20033;-71
2022/11/05 00:35:43;;;;;;;1999.90;999.90;;;;;;;9.19;100.00;100104.84;5020919;28;20044;-71
2022/11/05 00:38:09;;;;;;;1999.90;999.90;;;;;;;9.24;100.00;100107.47;5025847;28;20092;-72
2022/11/05 00:40:34;;;;;;;1999.90;999.90;;;;;;;9.24;100.00;100104.81;5023419;28;20041;-71
2022/11/05 00:45:43;;;;;;;1999.90;999.90;;;;;;;9.11;100.00;100107.53;5023069;28;20053;-71
2022/11/05 00:50:53;;;;;;;1999.90;999.90;;;;;;;9.01;100.00;100108.47;5029074;28;20519;-72
2022/11/05 00:53:19;;;;;;;1999.90;999.90;;;;;;;9.03;100.00;100119.88;5023075;28;20033;-71
2022/11/05 00:55:45;;;;;;;1999.90;999.90;;;;;;;9.03;100.00;100122.50;5030485;28;20407;-71
2022/11/05 00:58:18;;;;;;;1999.90;999.90;;;;;;;9.04;100.00;100111.13;5025178;28;20084;-72
2022/11/05 01:00:48;;;;;;;1999.90;999.90;;;;;;;9.01;100.00;100124.28;5028668;28;20052;-71
2022/11/05 01:03:15;;;;;;;1999.90;999.90;;;;;;;9.03;100.00;100119.88;5022602;28;20542;-71
2022/11/05 01:05:47;;;;;;;1999.90;999.90;;;;;;;9.04;100.00;100121.66;5024064;28;20041;-71
2022/11/05 01:08:14;;;;;;;1999.90;999.90;;;;;;;9.04;100.00;100126.00;5023204;28;20567;-71
2022/11/05 01:10:44;;;;;;;1999.90;999.90;;;;;;;9.05;100.00;100133.91;5023117;28;20492;-71
2022/11/05 01:13:11;;;;;;;1999.90;999.90;;;;;;;9.04;100.00;100132.19;5024008;28;20040;-71
2022/11/05 01:15:37;;;;;;;1999.90;999.90;;;;;;;9.08;100.00;100133.88;5020983;28;20042;-72
2022/11/05 01:18:03;;;;;;;1999.90;999.90;;;;;;;9.04;100.00;100137.44;5024867;28;20135;-71
2022/11/05 01:20:28;;;;;;;1999.90;999.90;;;;;;;9.07;100.00;100142.69;5024966;28;20527;-72
2022/11/05 01:22:54;;;;;;;1999.90;999.90;;;;;;;9.12;100.00;100150.56;5022947;28;20042;-72
2022/11/05 01:25:19;;;;;;;1999.90;999.90;;;;;;;9.13;100.00;100147.91;5021553;28;20029;-72
2022/11/05 01:27:45;;;;;;;1999.90;999.90;;;;;;;9.17;100.00;100149.63;5031043;28;20041;-72
2022/11/05 01:30:11;;;;;;;1999.90;999.90;;;;;;;9.14;100.00;100144.41;5022124;28;20056;-71
2022/11/05 01:32:37;;;;;;;1999.90;999.90;;;;;;;9.16;100.00;100153.13;5024055;28;20033;-72
2022/11/05 01:35:05;;;;;;;1999.90;999.90;;;;;;;9.14;100.00;100154.94;5024929;28;20056;-72
2022/11/05 01:37:30;;;;;;;1999.90;999.90;;;;;;;9.13;100.00;100158.44;5027917;28;20084;-72
2022/11/05 01:39:55;;;;;;;1999.90;999.90;;;;;;;9.12;100.00;100164.59;5021764;28;20042;-72
2022/11/05 01:42:23;;;;;;;1999.90;999.90;;;;;;;9.11;100.00;100154.06;5023637;28;20091;-72
2022/11/05 01:45:13;;;;;;;1999.90;999.90;;;;;;;9.13;100.00;100157.56;5023726;28;20039;-72
2022/11/05 01:48:04;;;;;;;1999.90;999.90;;;;;;;9.15;100.00;100155.78;5024112;28;20043;-72
2022/11/05 01:50:37;;;;;;;1999.90;999.90;;;;;;;9.16;100.00;100158.41;5022622;28;20483;-72
2022/11/05 01:53:08;;;;;;;1999.90;999.90;;;;;;;9.12;100.00;100172.47;5022102;28;20030;-72
2022/11/05 01:55:38;;;;;;;1999.90;999.90;;;;;;;9.11;100.00;100172.47;5023698;28;20415;-72
2022/11/05 01:58:06;;;;;;;1999.90;999.90;;;;;;;9.09;100.00;100175.13;5023780;28;20048;-72
2022/11/05 02:00:31;;;;;;;1999.90;999.90;;;;;;;9.05;100.00;100176.03;5021580;28;20034;-72
2022/11/05 02:02:57;;;;;;;1999.90;999.90;;;;;;;9.01;100.00;100179.53;5029876;28;20037;-72
2022/11/05 02:05:22;;;;;;;1999.90;999.90;;;;;;;8.99;100.00;100179.56;5024563;28;20102;-72
2022/11/05 02:07:49;;;;;;;1999.90;999.90;;;;;;;9.00;100.00;100183.06;5024127;28;20034;-72
2022/11/05 02:10:16;;;;;;;1999.90;999.90;;;;;;;9.01;100.00;100192.72;5020320;28;20033;-72
2022/11/05 02:12:44;;;;;;;1999.90;999.90;;;;;;;8.97;100.00;100188.38;5024066;28;20042;-72
2022/11/05 02:15:19;;;;;;;1999.90;999.90;;;;;;;9.01;100.00;100195.34;5021428;28;20090;-72
2022/11/05 02:18:05;;;;;;;1999.90;999.90;;;;;;;8.96;100.00;100200.66;5029757;28;20037;-71
2022/11/05 02:20:37;;;;;;;1999.90;999.90;;;;;;;8.97;100.00;100204.16;5024962;28;20044;-72
2022/11/05 02:23:37;;;;;;;1999.90;999.90;;;;;;;8.96;100.00;100212.91;5021295;28;20041;-72
2022/11/05 02:26:27;;;;;;;1999.90;999.90;;;;;;;8.93;100.00;100203.31;5010194;28;20053;-72
2022/11/05 02:29:18;;;;;;;1999.90;999.90;;;;;;;8.97;100.00;100206.78;5022414;28;20037;-72
2022/11/05 02:31:53;;;;;;;1999.90;999.90;;;;;;;8.94;100.00;100212.94;5023008;28;20042;-72
2022/11/05 02:34:31;;;;;;;1999.90;999.90;;;;;;;8.91;100.00;100206.81;5020819;28;20129;-72
2022/11/05 02:37:08;;;;;;;1999.90;999.90;;;;;;;8.91;100.00;100214.72;5023017;28;20037;-72
2022/11/05 02:39:59;;;;;;;1999.90;999.90;;;;;;;8.93;100.00;100212.94;5020020;28;20378;-72
2022/11/05 02:42:55;;;;;;;1999.90;999.90;;;;;;;8.96;100.00;100216.44;5021607;28;20045;-72
2022/11/05 02:45:45;;;;;;;1999.90;999.90;;;;;;;8.93;100.00;100218.19;5022225;28;20438;-72
2022/11/05 02:48:28;;;;;;;1999.90;999.90;;;;;;;8.93;100.00;100228.72;5026901;28;20088;-72
2022/11/05 02:51:07;;;;;;;1999.90;999.90;;;;;;;8.96;100.00;100229.59;5029731;28;20048;-72
2022/11/05 02:53:47;;;;;;;1999.90;999.90;;;;;;;8.93;100.00;100234.00;5020006;28;20069;-72
2022/11/05 02:56:30;;;;;;;1999.90;999.90;;;;;;;8.92;100.00;100233.13;5028477;28;20040;-72
2022/11/05 02:58:56;;;;;;;1999.90;999.90;;;;;;;8.96;100.00;100231.34;5021817;28;20034;-72
2022/11/05 03:01:21;;;;;;;1999.90;999.90;;;;;;;8.92;100.00;100234.88;5020134;28;20075;-72
2022/11/05 03:03:50;;;;;;;1999.90;999.90;;;;;;;8.95;100.00;100234.88;5022707;28;20029;-72
2022/11/05 03:06:32;;;;;;;1999.90;999.90;;;;;;;8.96;100.00;100249.75;5019834;28;20037;-72
2022/11/05 03:09:24;;;;;;;1999.90;999.90;;;;;;;8.97;100.00;100248.91;5023059;28;20045;-72
2022/11/05 03:12:12;;;;;;;1999.90;999.90;;;;;;;8.98;100.00;100261.16;5022901;28;20041;-72
2022/11/05 03:15:02;;;;;;;1999.90;999.90;;;;;;;8.97;100.00;100256.78;5022845;28;20756;-72
2022/11/05 03:17:40;;;;;;;1999.90;999.90;;;;;;;8.89;100.00;100263.84;5022778;28;20038;-72
2022/11/05 03:20:15;;;;;;;1999.90;999.90;;;;;;;8.94;100.00;100272.59;5026599;28;20044;-72
2022/11/05 03:22:48;;;;;;;1999.90;999.90;;;;;;;8.95;100.00;100274.34;5019615;28;20041;-72
2022/11/05 03:25:18;;;;;;;1999.90;999.90;;;;;;;8.87;100.00;100269.09;5020755;28;20069;-72
2022/11/05 03:27:47;;;;;;;1999.90;999.90;;;;;;;8.91;100.00;100277.88;5022675;28;20041;-72
2022/11/05 03:30:15;;;;;;;1999.90;999.90;;;;;;;8.92;100.00;100277.00;5019578;28;20128;-72
2022/11/05 03:32:47;;;;;;;1999.90;999.90;;;;;;;8.90;100.00;100281.38;5022720;28;20041;-72
2022/11/05 03:35:21;;;;;;;1999.90;999.90;;;;;;;8.88;100.00;100288.41;5021926;28;20479;-72
2022/11/05 03:37:50;;;;;;;1999.90;999.90;;;;;;;8.87;100.00;100289.28;5022852;28;20126;-72
2022/11/05 03:40:20;;;;;;;1999.90;999.90;;;;;;;8.87;100.00;100297.19;5019676;28;20124;-73
2022/11/05 03:42:51;;;;;;;1999.90;999.90;;;;;;;8.85;100.00;100294.53;5022129;28;20049;-72
2022/11/05 03:45:22;;;;;;;1999.90;999.90;;;;;;;8.84;100.00;100292.81;5019494;28;20041;-73
2022/11/05 03:47:51;;;;;;;1999.90;999.90;;;;;;;8.83;100.00;100293.69;5022955;28;20092;-72
2022/11/05 03:50:23;;;;;;;1999.90;999.90;;;;;;;8.83;100.00;100296.34;5022142;28;20041;-72
2022/11/05 03:52:52;;;;;;;1999.90;999.90;;;;;;;8.85;100.00;100291.91;5023266;28;20046;-72
2022/11/05 03:55:24;;;;;;;1999.90;999.90;;;;;;;8.86;100.00;100295.44;5024529;28;20426;-73
2022/11/05 03:57:53;;;;;;;1999.90;999.90;;;;;;;8.87;100.00;100295.41;5026443;28;20033;-73
2022/11/05 04:00:20;;;;;;;1999.90;999.90;;;;;;;8.84;100.00;100287.53;5022917;28;20042;-72
2022/11/05 04:02:45;;;;;;;1999.90;999.90;;;;;;;8.81;100.00;100295.44;5024919;28;20045;-73
2022/11/05 04:05:11;;;;;;;1999.90;999.90;;;;;;;8.77;100.00;100291.94;5024229;28;20034;-72
2022/11/05 04:18:42;;;;;;;1999.90;999.90;;;;;;;8.75;100.00;100321.75;5006511;28;20054;-72
2022/11/05 04:24:07;;;;;;;1999.90;999.90;;;;;;;8.66;100.00;100325.28;5025524;28;20041;-73
2022/11/05 04:26:37;;;;;;;1999.90;999.90;;;;;;;8.68;100.00;100326.16;5025220;28;20048;-73
2022/11/05 04:31:48;;;;;;;1999.90;999.90;;;;;;;8.68;100.00;100339.31;5027778;28;20041;-72
2022/11/05 04:34:15;;;;;;;1999.90;999.90;;;;;;;8.61;100.00;100340.22;5024614;28;20068;-72
2022/11/05 04:36:40;;;;;;;1999.90;999.90;;;;;;;8.60;100.00;100349.00;5023142;28;20092;-73
2022/11/05 04:39:05;;;;;;;1999.90;999.90;;;;;;;8.59;100.00;100355.09;5025830;28;20046;-74
2022/11/05 04:41:31;;;;;;;1999.90;999.90;;;;;;;8.54;100.00;100341.09;5026807;28;20084;-73
2022/11/05 04:43:56;;;;;;;1999.90;999.90;;;;;;;8.59;100.00;100352.47;5025364;28;20091;-73
2022/11/05 04:46:21;;;;;;;1999.90;999.90;;;;;;;8.61;100.00;100356.00;5024605;28;20037;-72
2022/11/05 04:48:47;;;;;;;1999.90;999.90;;;;;;;8.55;100.00;100354.25;5026728;28;20041;-73
2022/11/05 04:51:12;;;;;;;1999.90;999.90;;;;;;;8.52;100.00;100358.66;5031143;28;20049;-72
2022/11/05 04:53:37;;;;;;;1999.90;999.90;;;;;;;8.55;100.00;100363.91;5025187;28;20127;-72
2022/11/05 04:56:10;;;;;;;1999.90;999.90;;;;;;;8.54;100.00;100356.88;5022659;28;20050;-72
2022/11/05 04:58:39;;;;;;;;;;;;;;;8.48;100.00;100360.38;5025687;28;20077;-73
2022/11/05 05:01:04;;;;;;;1999.90;999.90;;;;;;;8.49;100.00;100361.28;5022995;28;19924;-73
2022/11/05 05:03:30;;;;;;;1999.90;999.90;;;;;;;8.49;100.00;100363.91;5023035;28;20030;-73
2022/11/05 05:05:58;;;;;;;1999.90;999.90;;;;;;;8.41;100.00;100371.81;5022490;28;20649;-73
2022/11/05 05:08:23;;;;;;;1999.90;999.90;;;;;;;8.35;100.00;100380.50;5024624;28;20038;-73
2022/11/05 05:10:48;;;;;;;1999.90;999.90;;;;;;;8.33;100.00;100390.16;5024548;28;20408;-73
2022/11/05 05:13:13;;;;;;;1999.90;999.90;;;;;;;8.32;100.00;100383.13;5021609;28;20496;-73
2022/11/05 05:15:39;;;;;;;1999.90;999.90;;;;;;;8.33;100.00;100389.25;5022052;28;20041;-73
2022/11/05 05:18:04;;;;;;;1999.90;999.90;;;;;;;8.34;100.00;100388.41;5031874;28;20030;-72
2022/11/05 05:23:13;;;;;;;1999.90;999.90;;;;;;;8.38;100.00;100381.38;5024783;28;20527;-72
2022/11/05 05:25:39;;;;;;;1999.90;999.90;;;;;;;8.34;100.00;100386.66;5027683;28;20030;-72
2022/11/05 05:28:04;;;;;;;1999.90;999.90;;;;;;;8.31;100.00;100385.78;5024951;28;20049;-72
2022/11/05 05:30:29;;;;;;;1999.90;999.90;;;;;;;8.27;100.00;100392.78;5025218;28;20033;-72
2022/11/05 05:32:55;;;;;;;1999.90;999.90;;;;;;;8.26;100.00;100400.69;5029002;28;20052;-72
2022/11/05 05:35:20;;;;;;;1999.90;999.90;;;;;;;8.22;100.00;100397.16;5024497;28;20037;-72
2022/11/05 05:37:45;;;;;;;1999.90;999.90;;;;;;;8.17;100.00;100401.53;5027681;28;20034;-72
2022/11/05 05:40:11;;;;;;;1999.90;999.90;;;;;;;8.14;100.00;100412.03;5027858;28;20053;-74
2022/11/05 05:42:36;;;;;;;1999.90;999.90;;;;;;;8.15;100.00;100411.19;5025105;28;20033;-72
2022/11/05 05:45:01;;;;;;;1999.90;999.90;;;;;;;8.15;100.00;100405.91;5029383;28;20044;-73
2022/11/05 05:47:26;;;;;;;1999.90;999.90;;;;;;;8.10;100.00;100412.91;5027160;28;20038;-73
2022/11/05 05:49:52;;;;;;;1999.90;999.90;;;;;;;8.07;100.00;100418.19;5028132;28;20039;-72
2022/11/05 05:52:17;;;;;;;1999.90;999.90;;;;;;;8.06;100.00;100421.66;5023534;28;20053;-72
2022/11/05 05:54:43;;;;;;;1999.90;999.90;;;;;;;8.04;100.00;100426.03;5023155;28;20030;-73
2022/11/05 05:57:08;;;;;;;1999.90;999.90;;;;;;;7.99;100.00;100425.13;5023092;28;20500;-72
2022/11/05 05:59:33;;;;;;;1999.90;999.90;;;;;;;7.99;100.00;100425.13;5029225;28;20423;-72
2022/11/05 06:01:59;;;;;;;1999.90;999.90;;;;;;;8.00;100.00;100432.16;5017792;28;20556;-72
2022/11/05 06:04:25;;;;;;;1999.90;999.90;;;;;;;7.95;100.00;100424.25;5024486;28;20598;-72
2022/11/05 06:06:50;;;;;;;1999.90;999.90;;;;;;;7.95;100.00;100433.91;5024626;28;20554;-72
2022/11/05 06:09:15;;;;;;;1999.90;999.90;;;;;;;7.93;100.00;100439.16;5018084;28;20069;-72
2022/11/05 06:11:41;;;;;;;1999.90;999.90;;;;;;;7.93;100.00;100446.16;5022681;28;20083;-72
2022/11/05 06:14:09;;;;;;;1999.90;999.90;;;;;;;7.93;100.00;100446.16;5019611;28;20116;-72
2022/11/05 06:16:35;;;;;;;1999.90;999.90;;;;;;;7.89;100.00;100459.28;5021018;28;20029;-72
2022/11/05 06:19:01;;;;;;;1999.90;999.90;;;;;;;7.89;100.00;100459.28;5021666;28;20040;-72
2022/11/05 06:21:26;;;;;;;1999.90;999.90;;;;;;;7.87;100.00;100458.41;5024710;28;20075;-73
2022/11/05 06:23:51;;;;;;;1999.90;999.90;;;;;;;7.90;100.00;100468.03;5028821;28;20591;-72
2022/11/05 06:26:17;;;;;;;1999.90;999.90;;;;;;;7.91;100.00;100475.03;5021302;28;20527;-72
2022/11/05 06:28:44;;;;;;;1999.90;999.90;;;;;;;7.90;100.00;100466.28;5028447;28;20499;-72
2022/11/05 06:31:10;;;;;;;1999.90;999.90;;;;;;;7.90;100.00;100473.31;5025429;28;20100;-72
2022/11/05 06:33:36;;;;;;;1999.90;999.90;;;;;;;7.88;100.00;100470.66;5023159;28;20038;-72
2022/11/05 06:36:03;;;;;;;1999.90;999.90;;;;;;;7.93;100.00;100482.94;5021294;28;20083;-72
2022/11/05 06:38:31;;;;;;;1999.90;999.90;;;;;;;7.91;100.00;100475.03;5023054;28;20030;-72
2022/11/05 06:40:58;;;;;;;1999.90;999.90;;;;;;;7.89;100.00;100489.94;5019227;28;20502;-73
2022/11/05 06:43:23;;;;;;;1999.90;999.90;;;;;;;7.86;100.00;100493.44;5022899;28;20037;-71
2022/11/05 06:45:48;;;;;;;1999.90;999.90;;;;;;;7.89;100.00;100495.22;5028761;28;20041;-71
2022/11/05 06:48:14;;;;;;;1999.90;999.90;;;;;;;7.96;100.00;100498.72;5022944;28;20084;-71
2022/11/05 06:50:43;;;;;;;1999.90;999.90;;;;;;;7.92;100.00;100496.97;5027647;28;20037;-71
2022/11/05 06:53:08;;;;;;;1999.90;999.90;;;;;;;7.90;100.00;100510.09;5021129;28;20068;-71
2022/11/05 06:55:33;;;;;;;1999.90;999.90;;;;;;;7.93;100.00;100510.09;5021845;28;20037;-71
2022/11/05 06:57:59;;;;;;;1999.90;999.90;;;;;;;7.97;100.00;100503.13;5025106;28;20041;-71
2022/11/05 07:00:24;;;;;;;1999.90;999.90;;;;;;;7.89;100.00;100501.34;5028069;28;20040;-71
2022/11/05 07:02:50;;;;;;;1999.90;999.90;;;;;;;7.90;100.00;100502.19;5025057;28;20117;-71
2022/11/05 07:05:16;;;;;;;1999.90;999.90;;;;;;;7.92;100.00;100507.47;5021456;28;20033;-71
2022/11/05 07:07:43;;;;;;;1999.90;999.90;;;;;;;7.91;100.00;100519.72;5025832;28;20033;-71
2022/11/05 07:10:13;;;;;;;1999.90;999.90;;;;;;;7.89;100.00;100519.72;5023254;28;20042;-71
2022/11/05 07:12:39;;;;;;;1999.90;999.90;;;;;;;7.87;100.00;100537.22;5022783;28;20038;-71
2022/11/05 07:15:05;;;;;;;1999.90;999.90;;;;;;;7.85;100.00;100536.34;5019885;28;20045;-71
2022/11/05 07:17:30;;;;;;;1999.90;999.90;;;;;;;7.82;100.00;100538.94;5021349;28;20104;-71
2022/11/05 07:19:56;;;;;;;1999.90;999.90;;;;;;;7.84;100.00;100547.72;5026015;28;20025;-71
2022/11/05 07:22:21;;;;;;;1999.90;999.90;;;;;;;7.95;100.00;100554.78;5025205;28;20045;-71
2022/11/05 07:24:48;;;;;;;1999.90;999.90;;;;;;;7.91;100.00;100548.63;5030091;28;20038;-72
2022/11/05 07:27:13;;;;;;;1999.90;999.90;;;;;;;7.87;100.00;100553.00;5031114;28;20040;-71
2022/11/05 07:29:38;;;;;;;1999.90;999.90;;;;;;;7.89;100.00;100551.25;5027763;28;20041;-71
2022/11/05 07:32:04;;;;;;;1999.90;999.90;;;;;;;7.98;100.00;100562.69;5025523;28;20044;-72
2022/11/05 07:34:30;;;;;;;1999.90;999.90;;;;;;;7.96;100.00;100567.91;5024714;28;20034;-72
2022/11/05 07:36:55;;;;;;;1999.90;999.90;;;;;;;8.02;100.00;100564.47;5024413;28;20511;-72
2022/11/05 07:39:20;;;;;;;1999.90;999.90;;;;;;;8.12;100.00;100571.50;5030556;28;20029;-72
2022/11/05 07:41:46;;;;;;;1999.90;999.90;;;;;;;8.19;100.00;100583.81;5034136;28;20399;-72
2022/11/05 07:44:13;;;;;;;1999.90;999.90;;;;;;;8.37;100.00;100590.03;5029168;28;20406;-72
2022/11/05 07:46:39;;;;;;;1999.90;999.90;;;;;;;8.44;100.00;100597.97;5027503;28;20036;-72
2022/11/05 07:49:05;;;;;;;1999.90;999.90;;;;;;;8.50;100.00;100607.63;5032855;28;20041;-72
2022/11/05 07:51:30;;;;;;;1999.90;999.90;;;;;;;8.58;100.00;100612.94;5029536;28;20042;-72
2022/11/05 07:53:55;;;;;;;1999.90;999.90;;;;;;;8.66;100.00;100609.44;5024096;28;20026;-72
2022/11/05 07:56:21;;;;;;;1999.90;999.90;;;;;;;8.70;100.00;100605.09;5027431;28;20104;-72
2022/11/05 07:58:46;;;;;;;1999.90;999.90;;;;;;;8.81;100.00;100615.63;5031569;28;20381;-71
2022/11/05 08:01:11;;;;;;;1999.90;999.90;;;;;;;8.87;100.00;100613.00;5025411;28;20079;-71
2022/11/05 08:03:37;;;;;;;1999.90;999.90;;;;;;;8.91;100.00;100604.25;5026343;28;20053;-72
2022/11/05 08:06:02;;;;;;;1999.90;999.90;;;;;;;9.03;100.00;100608.66;5023793;28;20037;-72
2022/11/05 08:08:27;;;;;;;1999.90;999.90;;;;;;;9.12;100.00;100609.53;5029677;28;20120;-71
2022/11/05 08:10:53;;;;;;;1999.90;999.90;;;;;;;9.20;100.00;100618.31;5026657;28;20083;-72
2022/11/05 08:13:18;;;;;;;1999.90;999.90;;;;;;;9.39;100.00;100623.59;5022416;28;20033;-72
2022/11/05 08:15:44;;;;;;;1999.90;999.90;;;;;;;9.47;100.00;100621.84;5025017;28;20056;-72
2022/11/05 08:18:11;;;;;;;1999.90;999.90;;;;;;;9.47;100.00;100624.47;5024142;28;20042;-72
2022/11/05 08:20:37;;;;;;;1999.90;999.90;;;;;;;9.56;100.00;100616.56;5026405;28;20407;-72
2022/11/05 08:23:03;;;;;;;1999.90;999.90;;;;;;;9.62;100.00;100627.09;5023253;28;20041;-72
2022/11/05 08:25:28;;;;;;;1999.90;999.90;;;;;;;9.73;100.00;100631.50;5024070;28;20406;-71
2022/11/05 08:28:01;;;;;;;1999.90;999.90;;;;;;;9.69;100.00;100642.91;5035680;28;20506;-72
2022/11/05 08:30:27;;;;;;;1999.90;999.90;;;;;;;9.62;100.00;100637.66;5034288;28;20530;-72
2022/11/05 08:32:58;;;;;;;1999.90;999.90;;;;;;;9.63;100.00;100635.88;5036565;28;20037;-72
2022/11/05 08:35:24;;;;;;;1999.90;999.90;;;;;;;9.58;100.00;100635.88;5027353;28;20634;-72
2022/11/05 08:37:50;;;;;;;1999.90;999.90;;;;;;;9.56;100.00;100642.94;5032323;28;20175;-71
2022/11/05 08:40:15;;;;;;;1999.90;999.90;;;;;;;9.57;100.00;100647.31;5030859;28;20037;-71
2022/11/05 08:42:40;;;;;;;1999.90;999.90;;;;;;;9.75;100.00;100645.56;5032079;28;20106;-71
2022/11/05 08:45:06;;;;;;;1999.90;999.90;;;;;;;9.76;100.00;100640.25;5033653;28;20037;-71
2022/11/05 08:47:31;;;;;;;1999.90;999.90;;;;;;;9.92;100.00;100649.03;5032317;28;20040;-72
2022/11/05 08:49:57;;;;;;;1999.90;999.90;;;;;;;9.95;100.00;100649.00;5026406;28;20040;-73
2022/11/05 08:52:22;;;;;;;18.60;16.60;;;;;;;10.12;100.00;100642.84;5025087;28;20046;-73
2022/11/05 08:54:47;;;;;;;1061.68;556.58;;;;;;;10.24;100.00;100654.25;5022075;28;20060;-73
2022/11/05 08:57:13;;;;;;;1517.57;761.45;;;;;;;10.31;100.00;100655.13;5027573;28;20244;-74
2022/11/05 08:59:38;;;;;;;1999.90;999.90;;;;;;;10.17;100.00;100654.28;5028307;28;20126;-75
2022/11/05 09:02:03;;;;;;;1999.90;999.90;;;;;;;10.09;100.00;100664.84;5022735;28;20046;-74
2022/11/05 09:04:29;;;;;;;1999.90;999.90;;;;;;;9.92;100.00;100666.59;5023157;28;20033;-73
2022/11/05 09:06:54;;;;;;;1999.90;999.90;;;;;;;9.91;100.00;100668.38;5023736;28;20080;-73
2022/11/05 09:09:20;;;;;;;1999.90;999.90;;;;;;;9.79;100.00;100663.09;5032045;28;20166;-73
2022/11/05 09:11:45;;;;;;;1999.90;999.90;;;;;;;9.79;100.00;100671.00;5031200;28;20033;-73
2022/11/05 09:14:11;;;;;;;1999.90;999.90;;;;;;;9.91;100.00;100671.00;5034568;28;20042;-73
2022/11/05 09:16:36;;;;;;;1999.90;999.90;;;;;;;10.00;100.00;100665.69;5022886;28;20042;-73
2022/11/05 09:19:03;;;;;;;1999.90;999.90;;;;;;;10.14;100.00;100668.34;5023745;28;20136;-73
2022/11/05 09:21:29;;;;;;;1999.90;999.90;;;;;;;9.95;100.00;100666.59;5027698;28;20063;-73
2022/11/05 09:23:55;;;;;;;1999.90;999.90;;;;;;;9.76;100.00;100671.00;5032803;28;20484;-72
2022/11/05 09:26:20;;;;;;;1999.90;999.90;;;;;;;9.65;100.00;100678.94;5031573;28;20084;-74
2022/11/05 09:28:45;;;;;;;1999.90;999.90;;;;;;;9.56;100.00;100677.19;5029346;28;20044;-73
2022/11/05 09:31:11;;;;;;;1999.90;999.90;;;;;;;9.54;100.00;100681.56;5028648;28;20050;-73
2022/11/05 09:33:39;;;;;;;1999.90;999.90;;;;;;;9.56;100.00;100681.53;5030351;28;20039;-73
2022/11/05 09:36:04;;;;;;;1999.90;999.90;;;;;;;9.62;100.00;100687.72;5029640;28;20036;-73
2022/11/05 09:38:33;;;;;;;1999.90;999.90;;;;;;;9.68;100.00;100693.88;5029415;28;20033;-73
2022/11/05 09:41:18;;;;;;;1999.90;999.90;;;;;;;9.79;100.00;100692.09;5029176;28;20079;-73
2022/11/05 09:43:52;;;;;;;1999.90;999.90;;;;;;;9.87;100.00;100693.84;5028811;28;20542;-74
2022/11/05 09:46:22;;;;;;;1999.90;999.90;;;;;;;9.98;100.00;100688.59;5026195;28;20080;-73
2022/11/05 09:48:52;;;;;;;1999.90;999.90;;;;;;;10.13;100.00;100698.22;5029941;28;20124;-73
2022/11/05 09:51:19;;;;;;;1999.90;999.90;;;;;;;10.31;100.00;100694.69;5031833;28;20492;-74
2022/11/05 09:53:45;;;;;;;1999.90;999.90;;;;;;;10.51;100.00;100700.81;5028656;28;20596;-74
2022/11/05 09:56:23;;;;;;;1999.90;999.90;;;;;;;10.48;100.00;100706.09;5030576;28;20108;-73
2022/11/05 09:58:54;;;;;;;1999.90;999.90;;;;;;;10.47;100.00;100714.00;5026294;28;20041;-74
2022/11/05 10:01:26;;;;;;;1999.90;999.90;;;;;;;10.47;100.00;100716.63;5028658;28;20550;-74
2022/11/05 10:03:58;;;;;;;1999.90;999.90;;;;;;;10.58;100.00;100719.25;5020448;28;20409;-73
2022/11/05 10:06:25;;;;;;;1999.90;999.90;;;;;;;10.63;100.00;100704.28;5022206;28;20068;-73
2022/11/05 10:09:15;;;;;;;1999.90;999.90;;;;;;;10.74;100.00;100715.66;5026549;28;20048;-74
2022/11/05 10:11:46;;;;;;;1999.90;999.90;;;;;;;10.79;100.00;100715.66;5030820;28;20130;-73
2022/11/05 10:14:32;;;;;;;1999.90;999.90;;;;;;;10.94;100.00;100705.03;5032441;28;20473;-74
2022/11/05 10:17:06;;;;;;;1999.90;999.90;;;;;;;11.11;100.00;100710.22;5027811;28;20376;-76
2022/11/05 10:19:43;;;;;;;1999.90;999.90;;;;;;;11.10;100.00;100714.63;5032488;28;20036;-73
2022/11/05 10:22:15;;;;;;;1999.90;999.90;;;;;;;11.06;100.00;100714.66;5028622;28;20040;-73
2022/11/05 10:24:41;;;;;;;;;;;;;;;10.85;100.00;100720.91;5029281;28;20094;-74
2022/11/05 10:27:15;;;;;;;1999.90;999.90;;;;;;;10.77;100.00;100723.59;5030180;28;19920;-73
2022/11/05 10:29:41;;;;;;;;;;;;;;;10.63;100.00;100720.09;5033094;28;20045;-74
2022/11/05 10:32:09;;;;;;;1999.90;999.90;;;;;;;10.64;100.00;100724.53;5028961;28;20268;-74
2022/11/05 10:34:38;;;;;;;1999.90;999.90;;;;;;;10.62;100.00;100728.91;5030945;28;20026;-73
2022/11/05 10:37:03;;;;;;;1999.90;999.90;;;;;;;10.65;100.00;100723.63;5028994;28;20061;-73
2022/11/05 10:39:31;;;;;;;1999.90;999.90;;;;;;;10.86;100.00;100726.19;5030842;28;20476;-73
2022/11/05 10:41:56;;;;;;;1999.90;999.90;;;;;;;11.00;100.00;100733.16;5030953;28;20033;-73
2022/11/05 10:44:47;;;;;;;1999.90;999.90;;;;;;;11.10;100.00;100733.09;5030872;28;20017;-73
2022/11/05 10:47:31;;;;;;;1999.90;999.90;;;;;;;11.14;100.00;100726.06;5028333;28;20029;-73
2022/11/05 10:50:03;;;;;;;1999.90;999.90;;;;;;;11.20;100.00;100723.38;5029083;28;20041;-74
2022/11/05 10:52:35;;;;;;;1999.90;999.90;;;;;;;11.28;99.17;100729.50;5030862;28;20091;-73
2022/11/05 10:55:06;;;;;;;1999.90;999.90;;;;;;;11.45;99.54;100732.03;5030562;28;20454;-74
2022/11/05 10:57:37;;;;;;;1999.90;999.90;;;;;;;11.73;98.57;100731.84;5028039;28;20047;-73
2022/11/05 11:00:14;;;;;;;1999.90;999.90;;;;;;;11.94;98.28;100738.75;5029973;28;20033;-73
2022/11/05 11:02:44;;;;;;;1999.90;999.90;;;;;;;12.07;95.03;100735.09;5030637;28;20052;-73
2022/11/05 11:05:18;;;;;;;1999.90;999.90;;;;;;;12.04;93.82;100745.72;5026982;28;20026;-74
2022/11/05 11:07:54;;;;;;;1999.90;999.90;;;;;;;12.08;94.93;100747.47;5023223;28;20033;-74
2022/11/05 11:10:21;;;;;;;1999.90;999.90;;;;;;;11.98;94.93;100751.06;5020569;28;20096;-74
2022/11/05 11:12:48;;;;;;;1999.90;999.90;;;;;;;11.72;95.63;100743.31;5020931;28;20030;-73
2022/11/05 11:15:20;;;;;;;1999.90;999.90;;;;;;;11.69;95.49;100749.50;5025706;28;20041;-73
2022/11/05 11:17:45;;;;;;;1999.90;999.90;;;;;;;11.73;96.06;100750.34;5022884;28;20112;-73
2022/11/05 11:20:27;;;;;;;1999.90;999.90;;;;;;;11.76;95.76;100740.63;5024805;28;20520;-73
2022/11/05 11:23:12;;;;;;;1999.90;999.90;;;;;;;11.85;95.70;100740.56;5022793;28;20037;-73
2022/11/05 11:25:49;;;;;;;1999.90;999.90;;;;;;;12.08;95.84;100742.16;5025903;28;20033;-73
2022/11/05 11:28:24;;;;;;;1999.90;999.90;;;;;;;12.51;94.43;100741.72;5022706;28;20057;-73
2022/11/05 11:30:55;;;;;;;1999.90;999.90;;;;;;;12.88;93.48;100742.19;5022583;28;20124;-72
2022/11/05 11:33:26;;;;;;;1999.90;999.90;;;;;;;12.56;91.88;100745.22;5020259;28;20141;-72
2022/11/05 11:35:51;;;;;;;1999.90;999.90;;;;;;;12.33;90.22;100752.50;5020201;28;20041;-73
2022/11/05 11:38:16;;;;;;;1999.90;999.90;;;;;;;12.24;90.63;100751.72;5022649;28;20103;-73